createdAt,value
2023-03-14T00:01:35.775Z,1.88
2023-03-14T00:04:05.370Z,1.50
2023-03-14T00:06:32.307Z,1.75
2023-03-14T00:08:59.050Z,1.75
2023-03-14T00:11:25.431Z,1.77
2023-03-14T00:13:52.664Z,1.75
2023-03-14T00:16:19.939Z,1.60
2023-03-14T00:18:46.315Z,1.90
2023-03-14T00:21:13.114Z,1.70
2023-03-14T00:23:40.782Z,2.00
2023-03-14T00:26:12.861Z,1.90
2023-03-14T00:28:40.204Z,1.35
2023-03-14T00:31:08.046Z,1.58
2023-03-14T00:33:34.856Z,1.48
2023-03-14T00:36:03.835Z,1.63
2023-03-14T00:38:31.534Z,1.40
2023-03-14T00:40:57.909Z,1.70
2023-03-14T00:43:24.778Z,1.77
2023-03-14T00:45:52.371Z,1.35
2023-03-14T00:48:20.358Z,2.05
2023-03-14T00:50:47.162Z,1.95
2023-03-14T00:53:13.557Z,1.70
2023-03-14T00:55:41.225Z,1.73
2023-03-14T00:58:07.588Z,1.52
2023-03-14T01:00:34.076Z,1.73
2023-03-14T01:03:00.600Z,2.03
2023-03-14T01:05:27.085Z,1.73
2023-03-14T01:07:53.450Z,1.55
2023-03-14T01:10:20.064Z,1.70
2023-03-14T01:12:46.448Z,1.70
2023-03-14T01:15:12.828Z,1.90
2023-03-14T01:17:40.345Z,1.45
2023-03-14T01:20:10.157Z,1.42
2023-03-14T01:22:37.336Z,1.45
2023-03-14T01:25:04.377Z,1.52
2023-03-14T01:27:30.736Z,1.50
2023-03-14T01:29:57.111Z,1.50
2023-03-14T01:32:24.833Z,1.67
2023-03-14T01:34:51.249Z,1.38
2023-03-14T01:37:17.850Z,1.65
2023-03-14T01:39:44.295Z,1.60
2023-03-14T01:42:10.658Z,1.50
2023-03-14T01:44:58.002Z,1.63
2023-03-14T01:47:24.527Z,1.75
2023-03-14T01:49:55.269Z,1.80
2023-03-14T01:52:26.386Z,1.73
2023-03-14T01:54:56.871Z,1.52
2023-03-14T01:57:26.732Z,2.00
2023-03-14T01:59:56.378Z,1.63
2023-03-14T02:02:23.426Z,1.88
2023-03-14T02:04:50.434Z,1.80
2023-03-14T02:07:28.048Z,1.55
2023-03-14T02:09:55.602Z,1.75
2023-03-14T02:12:22.741Z,1.80
2023-03-14T02:14:49.362Z,1.70
2023-03-14T02:17:18.630Z,1.42
2023-03-14T02:19:57.177Z,1.55
2023-03-14T02:22:23.701Z,1.80
2023-03-14T02:25:08.668Z,1.45
2023-03-14T02:27:35.856Z,1.85
2023-03-14T02:30:07.563Z,1.80
2023-03-14T02:32:35.758Z,1.50
2023-03-14T02:35:06.732Z,1.95
2023-03-14T02:37:48.974Z,1.35
2023-03-14T02:40:15.418Z,1.48
2023-03-14T02:42:41.827Z,1.60
2023-03-14T02:45:11.163Z,1.55
2023-03-14T02:47:42.511Z,1.50
2023-03-14T02:50:18.004Z,1.00
2023-03-14T02:52:44.382Z,1.13
2023-03-14T02:55:11.176Z,0.98
2023-03-14T02:57:37.768Z,0.82
2023-03-14T03:00:05.995Z,1.00
2023-03-14T03:02:32.573Z,0.90
2023-03-14T03:04:59.186Z,0.70
2023-03-14T03:07:25.798Z,0.93
2023-03-14T03:09:52.175Z,1.00
2023-03-14T03:12:18.533Z,0.85
2023-03-14T03:14:44.944Z,0.57
2023-03-14T03:17:11.349Z,0.70
2023-03-14T03:19:37.756Z,0.80
2023-03-14T03:22:04.184Z,0.85
2023-03-14T03:24:30.632Z,0.70
2023-03-14T03:26:57.087Z,0.90
2023-03-14T03:29:23.674Z,1.00
2023-03-14T03:31:50.034Z,1.00
2023-03-14T03:34:16.532Z,1.02
2023-03-14T03:36:42.901Z,1.15
2023-03-14T03:39:09.343Z,1.20
2023-03-14T03:41:35.693Z,1.20
2023-03-14T03:44:02.081Z,1.00
2023-03-14T03:46:28.518Z,0.90
2023-03-14T03:48:59.238Z,1.08
2023-03-14T03:51:25.707Z,1.40
2023-03-14T03:53:52.142Z,1.08
2023-03-14T03:56:18.834Z,1.00
2023-03-14T03:58:45.478Z,1.17
2023-03-14T04:01:12.040Z,1.05
2023-03-14T04:03:41.525Z,1.30
2023-03-14T04:06:12.982Z,1.40
2023-03-14T04:08:41.493Z,1.17
2023-03-14T04:11:08.108Z,1.10
2023-03-14T04:13:34.493Z,1.40
2023-03-14T04:16:00.896Z,1.30
2023-03-14T04:18:27.816Z,1.10
2023-03-14T04:20:55.299Z,1.30
2023-03-14T04:23:24.457Z,1.17
2023-03-14T04:25:54.330Z,1.40
2023-03-14T04:28:20.773Z,1.38
2023-03-14T04:30:47.137Z,1.25
2023-03-14T04:33:17.951Z,1.45
2023-03-14T04:35:45.303Z,1.73
2023-03-14T04:38:12.012Z,1.33
2023-03-14T04:40:39.404Z,1.73
2023-03-14T04:43:05.866Z,1.65
2023-03-14T04:45:32.330Z,1.58
2023-03-14T04:47:58.704Z,1.40
2023-03-14T04:50:25.065Z,1.67
2023-03-14T04:52:51.489Z,1.60
2023-03-14T04:55:17.965Z,1.52
2023-03-14T04:57:44.367Z,1.80
2023-03-14T05:00:11.233Z,1.60
2023-03-14T05:02:37.716Z,1.50
2023-03-14T05:05:04.635Z,2.00
2023-03-14T05:07:31.015Z,1.85
2023-03-14T05:09:57.412Z,1.80
2023-03-14T05:12:23.786Z,2.20
2023-03-14T05:14:51.624Z,2.13
2023-03-14T05:17:18.859Z,2.08
2023-03-14T05:19:45.564Z,2.92
2023-03-14T05:22:12.691Z,2.17
2023-03-14T05:24:39.125Z,2.30
2023-03-14T05:27:06.019Z,2.50
2023-03-14T05:29:32.479Z,2.33
2023-03-14T05:31:58.875Z,2.08
2023-03-14T05:34:25.301Z,2.45
2023-03-14T05:36:51.778Z,2.13
2023-03-14T05:39:19.108Z,2.10
2023-03-14T05:41:45.529Z,2.45
2023-03-14T05:44:11.878Z,2.10
2023-03-14T05:46:38.321Z,2.40
2023-03-14T05:49:04.750Z,2.38
2023-03-14T05:51:31.136Z,2.45
2023-03-14T05:53:57.521Z,1.83
2023-03-14T05:56:23.917Z,2.20
2023-03-14T05:58:51.423Z,2.78
2023-03-14T06:01:17.821Z,2.30
2023-03-14T06:03:44.236Z,1.63
2023-03-14T06:06:10.687Z,2.28
2023-03-14T06:08:37.112Z,1.92
2023-03-14T06:11:04.344Z,1.52
2023-03-14T06:13:30.742Z,1.33
2023-03-14T06:15:57.162Z,1.92
2023-03-14T06:18:23.576Z,2.03
2023-03-14T06:20:49.960Z,1.60
2023-03-14T06:23:16.362Z,1.90
2023-03-14T06:25:42.801Z,1.50
2023-03-14T06:28:11.514Z,1.50
2023-03-14T06:30:37.967Z,1.40
2023-03-14T06:33:04.484Z,1.40
2023-03-14T06:35:30.885Z,1.50
2023-03-14T06:37:57.314Z,1.35
2023-03-14T06:40:24.013Z,1.02
2023-03-14T06:42:50.472Z,1.33
2023-03-14T06:45:16.954Z,1.13
2023-03-14T06:47:43.412Z,1.00
2023-03-14T06:50:10.719Z,1.20
2023-03-14T06:52:37.525Z,0.80
2023-03-14T06:55:04.196Z,0.80
2023-03-14T06:57:30.548Z,0.63
2023-03-14T06:59:56.953Z,0.80
2023-03-14T07:02:36.074Z,0.90
2023-03-14T07:05:08.719Z,0.60
2023-03-14T07:07:35.161Z,0.68
2023-03-14T07:10:01.515Z,0.60
2023-03-14T07:12:27.935Z,0.50
2023-03-14T07:14:54.344Z,0.40
2023-03-14T07:17:20.751Z,0.90
2023-03-14T07:19:47.550Z,0.50
2023-03-14T07:22:13.932Z,0.73
2023-03-14T07:24:40.326Z,0.77
2023-03-14T07:27:07.295Z,0.68
2023-03-14T07:29:35.039Z,0.70
2023-03-14T07:32:01.415Z,0.80
2023-03-14T07:34:27.802Z,0.75
2023-03-14T07:36:54.194Z,0.65
2023-03-14T07:39:20.567Z,0.70
2023-03-14T07:41:47.006Z,0.50
2023-03-14T07:44:13.886Z,0.65
2023-03-14T07:46:40.386Z,0.70
2023-03-14T07:49:07.088Z,0.57
2023-03-14T07:51:33.634Z,0.88
2023-03-14T07:54:00.018Z,0.98
2023-03-14T07:56:26.397Z,0.77
2023-03-14T07:58:52.770Z,0.80
2023-03-14T08:01:19.170Z,0.80
2023-03-14T08:03:45.595Z,0.90
2023-03-14T08:06:12.035Z,0.90
2023-03-14T08:08:39.492Z,1.10
2023-03-14T08:11:07.057Z,1.48
2023-03-14T08:13:33.522Z,1.55
2023-03-14T08:16:00.050Z,1.50
2023-03-14T08:18:26.891Z,1.45
2023-03-14T08:20:53.273Z,2.03
2023-03-14T08:23:19.756Z,1.67
2023-03-14T08:25:46.319Z,2.03
2023-03-14T08:28:12.809Z,2.17
2023-03-14T08:30:39.238Z,2.40
2023-03-14T08:33:05.765Z,2.67
2023-03-14T08:35:32.191Z,2.80
2023-03-14T08:37:58.597Z,2.75
2023-03-14T08:40:25.129Z,2.53
2023-03-14T08:42:51.657Z,2.80
2023-03-14T08:45:18.315Z,2.72
2023-03-14T08:47:45.516Z,2.88
2023-03-14T08:50:16.063Z,2.67
2023-03-14T08:52:43.075Z,2.35
2023-03-14T08:55:10.594Z,2.78
2023-03-14T08:57:37.402Z,2.38
2023-03-14T09:00:15.217Z,3.05
2023-03-14T09:02:43.973Z,2.53
2023-03-14T09:05:11.226Z,2.42
2023-03-14T09:07:38.557Z,2.75
2023-03-14T09:10:05.522Z,3.03
2023-03-14T09:12:31.887Z,3.45
2023-03-14T09:14:58.303Z,3.50
2023-03-14T09:17:24.671Z,2.90
2023-03-14T09:19:51.065Z,3.05
2023-03-14T09:22:17.504Z,2.90
2023-03-14T09:24:44.017Z,3.20
2023-03-14T09:27:10.424Z,2.90
2023-03-14T09:29:36.866Z,2.80
2023-03-14T09:32:04.344Z,3.10
2023-03-14T09:34:30.769Z,3.10
2023-03-14T09:36:57.968Z,2.97
2023-03-14T09:39:24.375Z,3.10
2023-03-14T09:41:52.893Z,3.03
2023-03-14T09:44:27.007Z,3.42
2023-03-14T09:46:55.713Z,2.92
2023-03-14T09:49:30.417Z,3.17
2023-03-14T09:51:59.245Z,2.97
2023-03-14T09:54:34.873Z,3.40
2023-03-14T09:57:01.692Z,3.50
2023-03-14T09:59:29.716Z,4.00
2023-03-14T10:02:00.878Z,4.43
2023-03-14T10:04:28.528Z,4.25
2023-03-14T10:06:54.988Z,4.22
2023-03-14T10:09:26.695Z,4.50
2023-03-14T10:11:57.896Z,4.60
2023-03-14T10:14:31.894Z,5.10
2023-03-14T10:17:06.054Z,5.10
2023-03-14T10:19:32.459Z,5.47
2023-03-14T10:22:01.858Z,6.10
2023-03-14T10:24:35.893Z,6.07
2023-03-14T10:27:09.956Z,5.75
2023-03-14T10:29:53.075Z,6.10
2023-03-14T10:32:23.500Z,3.60
2023-03-14T10:35:12.208Z,1.27
2023-03-14T10:37:58.664Z,1.08
2023-03-14T10:40:34.790Z,0.55
2023-03-14T10:43:02.423Z,1.00
2023-03-14T10:45:52.282Z,0.73
2023-03-14T10:48:24.401Z,0.60
2023-03-14T10:50:56.898Z,0.70
2023-03-14T10:53:26.527Z,0.60
2023-03-14T10:55:54.102Z,0.50
2023-03-14T10:58:27.392Z,0.70
2023-03-14T11:01:23.052Z,0.40
2023-03-14T11:03:54.475Z,0.50
2023-03-14T11:06:34.112Z,0.30
2023-03-14T11:09:19.763Z,0.40
2023-03-14T11:11:48.419Z,0.82
2023-03-14T11:14:33.324Z,0.70
2023-03-14T11:17:15.241Z,0.70
2023-03-14T11:20:00.149Z,0.80
2023-03-14T11:22:34.230Z,0.90
2023-03-14T11:25:28.419Z,1.10
2023-03-14T11:28:05.924Z,0.80
2023-03-14T11:30:38.304Z,0.73
2023-03-14T11:33:04.707Z,0.80
2023-03-14T11:35:38.967Z,1.02
2023-03-14T11:38:34.427Z,1.15
2023-03-14T11:41:01.064Z,2.63
2023-03-14T11:43:35.964Z,2.78
2023-03-14T11:46:06.505Z,1.13
2023-03-14T11:48:41.951Z,0.82
2023-03-14T11:51:13.803Z,1.20
2023-03-14T11:53:49.650Z,1.50
2023-03-14T11:56:23.993Z,1.65
2023-03-14T11:58:58.823Z,1.80
2023-03-14T12:01:32.369Z,2.00
2023-03-14T12:04:03.960Z,2.15
2023-03-14T12:06:39.043Z,1.60
2023-03-14T12:09:07.038Z,2.15
2023-03-14T12:11:50.119Z,2.20
2023-03-14T12:14:34.497Z,3.05
2023-03-14T12:17:25.238Z,2.10
2023-03-14T12:20:22.002Z,1.92
2023-03-14T12:22:53.751Z,2.08
2023-03-14T12:25:27.140Z,1.73
2023-03-14T12:27:56.659Z,2.50
2023-03-14T12:30:33.686Z,4.88
2023-03-14T12:33:18.471Z,3.42
2023-03-14T12:35:46.840Z,3.85
2023-03-14T12:38:24.257Z,4.50
2023-03-14T12:41:00.273Z,3.60
2023-03-14T12:43:32.020Z,3.13
2023-03-14T12:46:23.007Z,3.45
2023-03-14T12:49:01.337Z,2.65
2023-03-14T12:51:39.144Z,2.40
2023-03-14T12:54:43.283Z,2.10
2023-03-14T12:57:34.452Z,1.98
2023-03-14T13:00:02.082Z,2.13
2023-03-14T13:02:37.685Z,2.38
2023-03-14T13:05:12.997Z,2.75
2023-03-14T13:07:48.500Z,3.03
2023-03-14T13:10:25.777Z,2.53
2023-03-14T13:12:56.415Z,2.15
2023-03-14T13:15:29.012Z,3.03
2023-03-14T13:18:00.796Z,2.53
2023-03-14T13:20:36.804Z,2.70
2023-03-14T13:23:03.518Z,2.85
2023-03-14T13:25:31.204Z,4.05
2023-03-14T13:27:58.134Z,9.82
2023-03-14T13:30:27.704Z,20.73
2023-03-14T13:32:55.528Z,13.68
2023-03-14T13:35:28.506Z,13.45
2023-03-14T13:38:10.984Z,16.33
2023-03-14T13:40:38.716Z,13.35
2023-03-14T13:43:15.844Z,16.70
2023-03-14T13:45:45.292Z,9.20
2023-03-14T13:48:13.370Z,6.70
2023-03-14T13:50:39.753Z,11.25
2023-03-14T13:53:06.155Z,7.38
2023-03-14T13:55:32.533Z,3.75
2023-03-14T13:57:58.902Z,3.97
2023-03-14T14:00:28.177Z,3.78
2023-03-14T14:02:55.686Z,3.78
2023-03-14T14:05:22.880Z,3.72
2023-03-14T14:07:50.176Z,3.15
2023-03-14T14:10:16.726Z,2.78
2023-03-14T14:12:53.863Z,2.80
2023-03-14T14:15:23.308Z,2.83
2023-03-14T14:17:56.079Z,2.60
2023-03-14T14:20:35.964Z,2.38
2023-03-14T14:23:04.538Z,2.42
2023-03-14T14:25:31.267Z,3.13
2023-03-14T14:27:57.681Z,2.38
2023-03-14T14:30:34.435Z,2.17
2023-03-14T14:33:21.375Z,2.60
2023-03-14T14:35:58.388Z,2.38
2023-03-14T14:38:25.702Z,2.72
2023-03-14T14:40:54.862Z,2.00
2023-03-14T14:43:25.628Z,2.45
2023-03-14T14:45:54.386Z,2.10
2023-03-14T14:48:23.760Z,2.42
2023-03-14T14:50:56.792Z,1.85
2023-03-14T14:53:30.366Z,1.60
2023-03-14T14:56:00.245Z,1.70
2023-03-14T14:58:34.643Z,2.78
2023-03-14T15:01:08.152Z,2.33
2023-03-14T15:03:34.969Z,2.83
2023-03-14T15:06:02.557Z,2.50
2023-03-14T15:08:29.480Z,1.90
2023-03-14T15:10:57.265Z,2.15
2023-03-14T15:13:24.075Z,2.58
2023-03-14T15:15:57.008Z,2.25
2023-03-14T15:18:25.633Z,2.15
2023-03-14T15:20:52.436Z,2.35
2023-03-14T15:23:23.067Z,2.03
2023-03-14T15:25:57.260Z,2.03
2023-03-14T15:28:28.510Z,1.90
2023-03-14T15:30:57.245Z,2.30
2023-03-14T15:33:24.999Z,2.00
2023-03-14T15:35:51.503Z,2.38
2023-03-14T15:38:23.974Z,1.90
2023-03-14T15:40:51.674Z,1.95
2023-03-14T15:43:19.287Z,2.13
2023-03-14T15:45:45.905Z,1.80
2023-03-14T15:48:17.684Z,1.95
2023-03-14T15:50:44.516Z,1.77
2023-03-14T15:53:11.514Z,1.67
2023-03-14T15:55:38.112Z,1.58
2023-03-14T15:58:05.061Z,2.22
2023-03-14T16:00:31.739Z,1.77
2023-03-14T16:02:58.131Z,1.92
2023-03-14T16:05:24.893Z,2.50
2023-03-14T16:07:51.380Z,1.75
2023-03-14T16:10:17.798Z,1.88
2023-03-14T16:12:44.312Z,2.40
2023-03-14T16:15:11.124Z,2.22
2023-03-14T16:17:38.707Z,2.38
2023-03-14T16:20:06.058Z,2.33
2023-03-14T16:22:35.721Z,3.20
2023-03-14T16:25:06.603Z,2.97
2023-03-14T16:27:33.183Z,3.63
2023-03-14T16:30:02.501Z,3.08
2023-03-14T16:32:29.000Z,2.75
2023-03-14T16:34:55.516Z,2.80
2023-03-14T16:37:24.296Z,2.28
2023-03-14T16:40:13.176Z,1.95
2023-03-14T16:42:43.585Z,3.50
2023-03-14T16:45:16.927Z,2.47
2023-03-14T16:47:43.378Z,3.13
2023-03-14T16:50:10.068Z,2.83
2023-03-14T16:52:36.673Z,2.40
2023-03-14T16:55:04.473Z,1.88
2023-03-14T16:57:30.843Z,1.90
2023-03-14T16:59:57.324Z,2.03
2023-03-14T17:02:23.871Z,2.35
2023-03-14T17:04:50.405Z,2.10
2023-03-14T17:07:16.889Z,1.85
2023-03-14T17:09:43.317Z,1.65
2023-03-14T17:12:09.852Z,2.05
2023-03-14T17:14:36.192Z,1.85
2023-03-14T17:17:02.583Z,2.13
2023-03-14T17:19:28.959Z,1.70
2023-03-14T17:22:09.330Z,2.00
2023-03-14T17:24:41.808Z,1.63
2023-03-14T17:27:08.201Z,2.33
2023-03-14T17:29:34.559Z,2.28
2023-03-14T17:32:00.951Z,2.40
2023-03-14T17:34:27.396Z,2.00
2023-03-14T17:36:53.758Z,1.98
2023-03-14T17:39:20.169Z,1.95
2023-03-14T17:41:47.662Z,1.55
2023-03-14T17:44:14.047Z,1.70
2023-03-14T17:46:40.518Z,2.05
2023-03-14T17:49:06.931Z,1.73
2023-03-14T17:51:33.420Z,1.80
2023-03-14T17:53:59.838Z,1.83
2023-03-14T17:56:26.238Z,1.95
2023-03-14T17:58:54.095Z,2.60
2023-03-14T18:01:21.160Z,2.00
2023-03-14T18:03:49.146Z,1.95
2023-03-14T18:06:17.003Z,1.88
2023-03-14T18:08:43.963Z,2.28
2023-03-14T18:11:11.513Z,2.40
2023-03-14T18:13:38.574Z,2.60
2023-03-14T18:16:06.672Z,3.05
2023-03-14T18:18:33.341Z,2.15
2023-03-14T18:20:59.835Z,2.83
2023-03-14T18:23:26.235Z,2.40
2023-03-14T18:25:52.681Z,2.25
2023-03-14T18:28:23.005Z,2.67
2023-03-14T18:30:52.423Z,2.40
2023-03-14T18:33:21.979Z,2.05
2023-03-14T18:35:51.450Z,2.42
2023-03-14T18:38:18.744Z,2.40
2023-03-14T18:40:45.216Z,3.45
2023-03-14T18:43:11.609Z,2.85
2023-03-14T18:45:38.018Z,2.80
2023-03-14T18:48:04.593Z,2.60
2023-03-14T18:50:31.572Z,2.30
2023-03-14T18:52:58.009Z,3.25
2023-03-14T18:55:24.440Z,2.53
2023-03-14T18:57:50.814Z,2.28
2023-03-14T19:00:18.913Z,2.85
2023-03-14T19:02:45.495Z,2.67
2023-03-14T19:05:13.311Z,2.95
2023-03-14T19:07:39.738Z,2.88
2023-03-14T19:10:06.411Z,3.10
2023-03-14T19:12:32.798Z,5.00
2023-03-14T19:14:59.173Z,6.25
2023-03-14T19:17:25.625Z,7.20
2023-03-14T19:19:53.999Z,9.10
2023-03-14T19:22:20.969Z,8.98
2023-03-14T19:24:47.331Z,8.00
2023-03-14T19:27:13.711Z,6.30
2023-03-14T19:29:42.176Z,5.93
2023-03-14T19:32:09.781Z,3.65
2023-03-14T19:34:36.200Z,2.38
2023-03-14T19:37:02.643Z,2.45
2023-03-14T19:39:29.032Z,2.55
2023-03-14T19:41:59.052Z,2.28
2023-03-14T19:44:26.298Z,2.42
2023-03-14T19:46:53.215Z,2.33
2023-03-14T19:49:21.807Z,2.38
2023-03-14T19:51:49.156Z,2.55
2023-03-14T19:54:15.548Z,2.50
2023-03-14T19:56:42.175Z,2.25
2023-03-14T19:59:08.576Z,2.78
2023-03-14T20:01:35.135Z,2.40
2023-03-14T20:04:04.784Z,2.35
2023-03-14T20:06:31.293Z,2.90
2023-03-14T20:08:58.906Z,2.50
2023-03-14T20:11:25.454Z,2.78
2023-03-14T20:13:51.841Z,2.33
2023-03-14T20:16:18.250Z,2.08
2023-03-14T20:18:44.659Z,2.55
2023-03-14T20:21:13.893Z,2.15
2023-03-14T20:23:40.428Z,2.35
2023-03-14T20:26:06.906Z,2.75
2023-03-14T20:28:33.536Z,2.63
2023-03-14T20:31:00.993Z,2.50
2023-03-14T20:33:27.461Z,2.33
2023-03-14T20:35:58.443Z,1.90
2023-03-14T20:38:26.345Z,2.15
2023-03-14T20:40:55.946Z,2.20
2023-03-14T20:43:22.372Z,2.70
2023-03-14T20:45:56.065Z,2.33
2023-03-14T20:48:23.283Z,2.33
2023-03-14T20:50:49.672Z,2.60
2023-03-14T20:53:16.588Z,1.98
2023-03-14T20:55:42.993Z,2.40
2023-03-14T20:58:12.706Z,2.95
2023-03-14T21:00:40.266Z,2.63
2023-03-14T21:03:07.345Z,2.42
2023-03-14T21:05:34.454Z,2.38
2023-03-14T21:08:00.911Z,2.55
2023-03-14T21:10:27.322Z,2.33
2023-03-14T21:12:53.857Z,2.60
2023-03-14T21:15:20.222Z,2.63
2023-03-14T21:17:46.597Z,2.38
2023-03-14T21:20:13.477Z,2.70
2023-03-14T21:22:39.986Z,3.13
2023-03-14T21:25:06.885Z,2.15
2023-03-14T21:27:33.431Z,2.60
2023-03-14T21:30:00.016Z,2.85
2023-03-14T21:32:26.443Z,2.15
2023-03-14T21:34:53.309Z,2.33
2023-03-14T21:37:20.119Z,2.72
2023-03-14T21:39:46.491Z,2.40
2023-03-14T21:42:13.031Z,2.63
2023-03-14T21:44:41.232Z,2.47
2023-03-14T21:47:08.331Z,2.50
2023-03-14T21:49:38.088Z,2.90
2023-03-14T21:52:06.649Z,2.30
2023-03-14T21:54:36.599Z,2.40
2023-03-14T21:57:04.278Z,2.33
2023-03-14T21:59:33.885Z,3.00
2023-03-14T22:02:02.458Z,4.05
2023-03-14T22:04:36.386Z,5.72
2023-03-14T22:07:08.708Z,4.90
2023-03-14T22:12:02.190Z,4.28
2023-03-14T22:14:28.562Z,5.80
2023-03-14T22:16:54.968Z,9.43
2023-03-14T22:19:21.972Z,12.85
2023-03-14T22:21:48.846Z,17.77
2023-03-14T22:24:15.196Z,9.35
2023-03-14T22:26:41.899Z,13.93
2023-03-14T22:29:08.305Z,10.35
2023-03-14T22:31:34.713Z,7.90
2023-03-14T22:34:01.142Z,6.63
2023-03-14T22:36:27.554Z,4.32
2023-03-14T22:38:53.917Z,3.50
2023-03-14T22:41:20.339Z,3.08
2023-03-14T22:43:47.450Z,2.58
2023-03-14T22:46:13.869Z,2.63
2023-03-14T22:48:40.282Z,3.33
2023-03-14T22:51:10.180Z,2.33
2023-03-14T22:53:37.638Z,2.78
2023-03-14T22:56:06.020Z,2.63
2023-03-14T22:58:32.967Z,2.65
2023-03-14T23:01:00.226Z,2.70
2023-03-14T23:03:27.098Z,2.33
2023-03-14T23:05:53.721Z,2.45
2023-03-14T23:08:20.227Z,2.75
2023-03-14T23:10:46.597Z,2.55
2023-03-14T23:13:15.808Z,2.67
2023-03-14T23:15:42.922Z,2.90
2023-03-14T23:18:10.928Z,2.47
2023-03-14T23:20:37.434Z,2.05
2023-03-14T23:23:04.096Z,2.20
2023-03-14T23:25:33.794Z,2.15
2023-03-14T23:28:05.046Z,2.33
2023-03-14T23:30:31.464Z,2.47
2023-03-14T23:32:57.893Z,2.53
2023-03-14T23:35:24.301Z,2.67
2023-03-14T23:37:50.890Z,2.45
2023-03-14T23:40:17.649Z,2.45
2023-03-14T23:42:44.119Z,3.00
2023-03-14T23:45:13.960Z,2.40
2023-03-14T23:47:41.210Z,3.35
2023-03-14T23:50:08.454Z,2.60
2023-03-14T23:52:34.809Z,2.40
2023-03-14T23:55:01.186Z,2.40
2023-03-14T23:57:27.544Z,2.60
2023-03-14T23:59:53.917Z,3.03
